createdAt,value
2022-10-03T00:02:05.086Z,59.02
2022-10-03T00:04:43.199Z,57.94
2022-10-03T00:07:25.546Z,58.01
2022-10-03T00:10:06.029Z,56.37
2022-10-03T00:12:50.502Z,58.85
2022-10-03T00:15:21.972Z,59.25
2022-10-03T00:18:04.900Z,58.27
2022-10-03T00:20:40.225Z,57.92
2022-10-03T00:23:15.639Z,56.49
2022-10-03T00:25:51.188Z,57.83
2022-10-03T00:28:25.709Z,59.27
2022-10-03T00:31:03.508Z,59.41
2022-10-03T00:33:35.478Z,59.10
2022-10-03T00:36:07.670Z,58.20
2022-10-03T00:38:45.970Z,58.14
2022-10-03T00:41:24.157Z,59.02
2022-10-03T00:44:12.879Z,60.46
2022-10-03T00:46:58.447Z,59.61
2022-10-03T00:50:07.343Z,62.72
2022-10-03T00:52:46.860Z,59.09
2022-10-03T00:55:19.473Z,59.17
2022-10-03T01:00:27.057Z,58.89
2022-10-03T01:03:09.667Z,59.86
2022-10-03T01:05:47.369Z,60.22
2022-10-03T01:08:45.375Z,56.99
2022-10-03T01:11:22.783Z,59.07
2022-10-03T01:13:57.086Z,59.48
2022-10-03T01:16:31.425Z,60.52
2022-10-03T01:19:05.581Z,60.97
2022-10-03T01:21:39.323Z,58.97
2022-10-03T01:24:25.634Z,59.91
2022-10-03T01:26:55.689Z,60.88
2022-10-03T01:29:45.849Z,56.79
2022-10-03T01:32:16.843Z,57.89
2022-10-03T01:34:48.291Z,56.72
2022-10-03T01:37:22.935Z,60.08
2022-10-03T01:39:54.023Z,59.22
2022-10-03T01:42:31.905Z,60.33
2022-10-03T01:45:08.453Z,60.81
2022-10-03T01:47:40.572Z,61.97
2022-10-03T01:50:13.653Z,61.19
2022-10-03T01:52:46.290Z,58.97
2022-10-03T01:55:20.311Z,57.49
2022-10-03T01:57:53.581Z,58.67
2022-10-03T02:00:24.420Z,61.00
2022-10-03T02:02:56.409Z,61.56
2022-10-03T02:05:27.836Z,60.58
2022-10-03T02:07:58.338Z,59.93
2022-10-03T02:10:32.601Z,58.45
2022-10-03T02:13:06.522Z,59.79
2022-10-03T02:15:42.098Z,59.68
2022-10-03T02:18:15.165Z,57.10
2022-10-03T02:20:46.897Z,60.84
2022-10-03T02:23:25.410Z,60.59
2022-10-03T02:26:00.849Z,58.77
2022-10-03T02:29:10.579Z,58.09
2022-10-03T02:31:50.432Z,59.48
2022-10-03T02:34:33.723Z,56.78
2022-10-03T02:37:28.575Z,59.29
2022-10-03T02:40:26.370Z,59.70
2022-10-03T02:43:05.575Z,58.32
2022-10-03T02:45:51.885Z,60.12
2022-10-03T02:49:04.650Z,62.40
2022-10-03T02:51:47.242Z,60.90
2022-10-03T02:54:26.134Z,58.24
2022-10-03T02:57:06.946Z,58.88
2022-10-03T02:59:48.091Z,57.36
2022-10-03T03:02:30.980Z,58.36
2022-10-03T03:05:19.867Z,60.73
2022-10-03T03:08:02.036Z,58.26
2022-10-03T03:10:44.077Z,60.28
2022-10-03T03:13:32.277Z,56.30
2022-10-03T03:16:12.758Z,58.98
2022-10-03T03:18:43.290Z,58.52
2022-10-03T03:21:24.854Z,59.45
2022-10-03T03:24:07.450Z,58.19
2022-10-03T03:26:50.737Z,58.80
2022-10-03T03:29:25.697Z,59.50
2022-10-03T03:32:03.418Z,62.57
2022-10-03T03:34:34.640Z,61.16
2022-10-03T03:37:07.218Z,62.70
2022-10-03T03:39:43.774Z,57.51
2022-10-03T03:42:25.364Z,58.17
2022-10-03T03:45:07.972Z,60.01
2022-10-03T03:47:43.341Z,58.36
2022-10-03T03:50:24.123Z,57.67
2022-10-03T03:52:59.706Z,59.84
2022-10-03T03:55:35.326Z,56.17
2022-10-03T03:58:14.264Z,60.75
2022-10-03T04:00:50.130Z,60.75
2022-10-03T04:03:27.436Z,59.58
2022-10-03T04:06:05.892Z,59.62
2022-10-03T04:08:52.404Z,59.97
2022-10-03T04:11:27.614Z,59.56
2022-10-03T04:14:13.101Z,59.43
2022-10-03T04:17:04.082Z,56.92
2022-10-03T04:19:34.945Z,59.19
2022-10-03T04:22:25.567Z,59.06
2022-10-03T04:25:07.949Z,58.25
2022-10-03T04:27:46.844Z,59.73
2022-10-03T04:30:16.720Z,57.78
2022-10-03T04:32:57.419Z,56.62
2022-10-03T04:35:37.399Z,60.29
2022-10-03T04:38:16.751Z,61.30
2022-10-03T04:40:54.345Z,61.93
2022-10-03T04:43:37.134Z,61.32
2022-10-03T04:46:27.809Z,61.81
2022-10-03T04:49:04.415Z,59.64
2022-10-03T04:51:45.449Z,58.38
2022-10-03T04:54:23.072Z,60.98
2022-10-03T04:56:59.353Z,60.53
2022-10-03T04:59:47.053Z,59.39
2022-10-03T05:02:30.939Z,58.86
2022-10-03T05:05:13.882Z,59.24
2022-10-03T05:07:51.783Z,60.74
2022-10-03T05:10:31.898Z,60.14
2022-10-03T05:13:08.221Z,59.36
2022-10-03T05:15:43.387Z,59.93
2022-10-03T05:18:22.298Z,58.44
2022-10-03T05:21:00.778Z,61.09
2022-10-03T05:23:39.260Z,59.29
2022-10-03T05:26:43.521Z,58.43
2022-10-03T05:29:16.379Z,56.72
2022-10-03T05:31:50.993Z,58.37
2022-10-03T05:34:30.261Z,58.81
2022-10-03T05:37:18.224Z,59.09
2022-10-03T05:39:57.691Z,59.29
2022-10-03T05:42:37.807Z,59.37
2022-10-03T05:45:21.699Z,59.77
2022-10-03T05:47:55.482Z,58.96
2022-10-03T05:51:12.115Z,59.70
2022-10-03T05:54:36.074Z,60.59
2022-10-03T05:57:23.752Z,58.66
2022-10-03T06:00:07.668Z,58.98
2022-10-03T06:03:23.205Z,58.99
2022-10-03T06:06:18.131Z,58.68
2022-10-03T06:09:23.569Z,59.13
2022-10-03T06:12:07.455Z,59.81
2022-10-03T06:14:54.665Z,58.95
2022-10-03T06:17:42.334Z,58.73
2022-10-03T06:20:46.712Z,58.54
2022-10-03T06:23:38.450Z,58.11
2022-10-03T06:26:39.531Z,58.08
2022-10-03T06:29:54.814Z,58.19
2022-10-03T06:32:52.195Z,58.29
2022-10-03T06:36:03.545Z,59.27
2022-10-03T06:39:05.057Z,57.86
2022-10-03T06:42:08.486Z,58.99
2022-10-03T06:44:58.763Z,58.76
2022-10-03T06:47:42.366Z,58.91
2022-10-03T06:50:30.539Z,59.63
2022-10-03T06:53:30.026Z,59.66
2022-10-03T06:56:46.319Z,57.96
2022-10-03T06:59:52.788Z,59.33
2022-10-03T07:02:43.560Z,59.07
2022-10-03T07:05:41.361Z,60.05
2022-10-03T07:08:43.761Z,60.52
2022-10-03T07:11:47.306Z,59.63
2022-10-03T07:14:56.499Z,60.13
2022-10-03T07:17:45.273Z,58.69
2022-10-03T07:20:34.218Z,60.05
2022-10-03T07:23:41.807Z,60.12
2022-10-03T07:26:58.465Z,60.05
2022-10-03T07:29:41.334Z,60.20
2022-10-03T07:32:28.088Z,60.43
2022-10-03T07:35:53.516Z,61.37
2022-10-03T07:39:07.064Z,59.03
2022-10-03T07:41:44.266Z,59.17
2022-10-03T07:44:20.450Z,60.51
2022-10-03T07:47:42.808Z,60.78
2022-10-03T07:50:27.814Z,60.65
2022-10-03T07:53:08.805Z,61.16
2022-10-03T07:55:47.466Z,61.28
2022-10-03T07:58:34.069Z,61.28
2022-10-03T08:01:19.177Z,61.54
2022-10-03T08:03:58.058Z,61.04
2022-10-03T08:06:31.581Z,60.49
2022-10-03T08:09:20.397Z,61.62
2022-10-03T08:12:12.174Z,61.17
2022-10-03T08:15:05.236Z,61.23
2022-10-03T08:17:57.219Z,60.73
2022-10-03T08:20:39.695Z,60.66
2022-10-03T08:23:38.079Z,60.16
2022-10-03T08:26:13.426Z,59.93
2022-10-03T08:28:48.381Z,58.63
2022-10-03T08:31:35.130Z,60.36
2022-10-03T08:34:22.173Z,60.74
2022-10-03T08:37:13.690Z,60.30
2022-10-03T08:40:02.107Z,60.53
2022-10-03T08:43:00.089Z,59.41
2022-10-03T08:45:47.485Z,59.76
2022-10-03T08:48:42.036Z,59.71
2022-10-03T08:51:26.776Z,60.61
2022-10-03T08:54:07.725Z,60.76
2022-10-03T08:56:49.442Z,60.10
2022-10-03T08:59:56.460Z,60.59
2022-10-03T09:03:43.599Z,59.10
2022-10-03T09:07:05.221Z,61.06
2022-10-03T09:10:09.606Z,61.08
2022-10-03T09:13:03.111Z,60.91
2022-10-03T09:16:01.520Z,60.55
2022-10-03T09:18:51.272Z,59.33
2022-10-03T09:21:51.399Z,59.45
2022-10-03T09:25:22.518Z,60.66
2022-10-03T09:28:15.394Z,60.63
2022-10-03T09:31:05.217Z,60.31
2022-10-03T09:34:10.597Z,59.89
2022-10-03T09:37:13.825Z,57.83
2022-10-03T09:40:14.054Z,57.68
2022-10-03T09:43:10.827Z,59.02
2022-10-03T09:46:21.758Z,57.29
2022-10-03T09:49:24.459Z,57.90
2022-10-03T09:52:10.239Z,57.10
2022-10-03T09:55:04.799Z,57.62
2022-10-03T09:58:03.297Z,54.20
2022-10-03T10:00:51.101Z,49.86
2022-10-03T10:04:00.535Z,51.77
2022-10-03T10:06:42.714Z,55.16
2022-10-03T10:09:45.829Z,54.87
2022-10-03T10:12:40.042Z,58.36
2022-10-03T10:15:39.597Z,58.74
2022-10-03T10:18:41.341Z,57.48
2022-10-03T10:21:38.027Z,49.48
2022-10-03T10:24:37.185Z,49.84
2022-10-03T10:27:30.953Z,49.44
2022-10-03T10:30:22.095Z,48.08
2022-10-03T10:33:35.730Z,49.24
2022-10-03T10:36:41.330Z,44.35
2022-10-03T10:39:54.282Z,46.56
2022-10-03T10:43:03.863Z,46.36
2022-10-03T10:45:45.738Z,45.78
2022-10-03T10:48:53.479Z,46.02
2022-10-03T10:52:05.007Z,49.61
2022-10-03T10:55:03.707Z,44.03
2022-10-03T10:58:32.379Z,44.83
2022-10-03T11:01:35.155Z,44.16
2022-10-03T11:04:42.382Z,46.43
2022-10-03T11:07:38.089Z,47.47
2022-10-03T11:10:34.202Z,46.24
2022-10-03T11:14:02.630Z,44.34
2022-10-03T11:17:22.604Z,46.76
2022-10-03T11:20:29.491Z,46.29
2022-10-03T11:23:30.783Z,47.72
2022-10-03T11:26:31.133Z,44.06
2022-10-03T11:29:31.399Z,45.15
2022-10-03T11:32:26.737Z,46.04
2022-10-03T11:35:22.375Z,42.60
2022-10-03T11:37:57.450Z,42.20
2022-10-03T11:40:37.546Z,43.65
2022-10-03T11:43:40.878Z,42.69
2022-10-03T11:46:23.826Z,39.16
2022-10-03T11:48:57.278Z,41.94
2022-10-03T11:51:40.712Z,39.26
2022-10-03T11:54:31.618Z,40.80
2022-10-03T11:57:03.112Z,44.52
2022-10-03T11:59:44.883Z,43.33
2022-10-03T12:02:32.740Z,44.92
2022-10-03T12:05:08.108Z,46.38
2022-10-03T12:08:03.091Z,41.27
2022-10-03T12:10:46.495Z,45.35
2022-10-03T12:13:20.847Z,45.79
2022-10-03T12:15:51.721Z,43.55
2022-10-03T12:18:34.639Z,46.27
2022-10-03T12:21:12.942Z,46.99
2022-10-03T12:24:01.050Z,47.75
2022-10-03T12:26:43.885Z,46.51
2022-10-03T12:29:14.664Z,47.78
2022-10-03T12:31:48.465Z,51.52
2022-10-03T12:34:38.543Z,49.74
2022-10-03T12:37:28.028Z,49.69
2022-10-03T12:40:06.194Z,47.02
2022-10-03T12:42:40.538Z,47.93
2022-10-03T12:45:17.409Z,48.60
2022-10-03T12:48:07.521Z,50.57
2022-10-03T12:50:48.531Z,49.93
2022-10-03T12:53:29.350Z,46.64
2022-10-03T12:56:06.459Z,47.88
2022-10-03T12:58:46.542Z,49.97
2022-10-03T13:01:23.415Z,50.89
2022-10-03T13:03:55.909Z,49.55
2022-10-03T13:07:03.780Z,52.00
2022-10-03T13:09:59.490Z,48.62
2022-10-03T13:12:39.360Z,49.13
2022-10-03T13:15:43.231Z,43.31
2022-10-03T13:18:24.214Z,43.82
2022-10-03T13:20:59.929Z,45.35
2022-10-03T13:23:38.185Z,46.57
2022-10-03T13:26:17.314Z,44.39
2022-10-03T13:29:12.860Z,45.58
2022-10-03T13:31:56.515Z,45.11
2022-10-03T13:34:28.704Z,44.49
2022-10-03T13:37:02.166Z,45.45
2022-10-03T13:39:46.255Z,45.24
2022-10-03T13:42:20.318Z,45.48
2022-10-03T13:44:54.531Z,44.74
2022-10-03T13:47:38.740Z,45.90
2022-10-03T13:50:15.326Z,46.42
2022-10-03T13:52:49.498Z,47.59
2022-10-03T13:55:44.203Z,46.83
2022-10-03T13:58:44.101Z,51.85
2022-10-03T14:01:42.980Z,46.56
2022-10-03T14:04:37.240Z,48.93
2022-10-03T14:07:15.510Z,46.89
2022-10-03T14:10:04.641Z,47.21
2022-10-03T14:12:55.427Z,44.38
2022-10-03T14:15:45.209Z,48.70
2022-10-03T14:18:26.647Z,50.79
2022-10-03T14:21:27.029Z,47.10
2022-10-03T14:24:04.311Z,49.68
2022-10-03T14:26:39.610Z,50.33
2022-10-03T14:29:20.318Z,51.65
2022-10-03T14:31:57.343Z,46.00
2022-10-03T14:34:40.034Z,47.55
2022-10-03T14:37:21.018Z,45.21
2022-10-03T14:40:02.754Z,44.95
2022-10-03T14:42:48.178Z,45.04
2022-10-03T14:45:26.548Z,46.07
2022-10-03T14:47:58.666Z,50.44
2022-10-03T14:50:31.388Z,49.52
2022-10-03T14:53:06.185Z,43.58
2022-10-03T14:55:40.884Z,49.53
2022-10-03T14:58:18.843Z,44.95
2022-10-03T15:00:49.731Z,46.31
2022-10-03T15:03:38.119Z,49.15
2022-10-03T15:06:36.202Z,51.33
2022-10-03T15:09:10.071Z,52.59
2022-10-03T15:11:45.881Z,52.09
2022-10-03T15:14:17.103Z,52.86
2022-10-03T15:16:52.087Z,49.19
2022-10-03T15:19:22.952Z,53.71
2022-10-03T15:21:54.086Z,54.24
2022-10-03T15:24:25.618Z,54.50
2022-10-03T15:27:01.584Z,50.59
2022-10-03T15:29:32.254Z,55.20
2022-10-03T15:32:04.658Z,57.55
2022-10-03T15:34:39.164Z,55.46
2022-10-03T15:37:15.888Z,54.52
2022-10-03T15:39:45.823Z,56.40
2022-10-03T15:42:23.967Z,55.82
2022-10-03T15:44:54.668Z,55.71
2022-10-03T15:47:26.697Z,56.54
2022-10-03T15:49:59.658Z,56.02
2022-10-03T15:52:35.263Z,56.22
2022-10-03T15:55:11.745Z,57.14
2022-10-03T15:57:45.774Z,57.61
2022-10-03T16:00:22.471Z,56.71
2022-10-03T16:02:59.844Z,56.49
2022-10-03T16:05:28.655Z,56.75
2022-10-03T16:08:05.419Z,56.42
2022-10-03T16:10:38.019Z,56.52
2022-10-03T16:13:19.586Z,56.18
2022-10-03T16:16:05.246Z,56.91
2022-10-03T16:18:49.300Z,56.77
2022-10-03T16:21:29.226Z,57.32
2022-10-03T16:24:00.183Z,57.80
2022-10-03T16:26:31.142Z,57.45
2022-10-03T16:29:11.741Z,57.62
2022-10-03T16:31:45.298Z,56.61
2022-10-03T16:34:17.575Z,57.63
2022-10-03T16:36:48.192Z,57.35
2022-10-03T16:39:22.617Z,57.65
2022-10-03T16:41:54.263Z,57.67
2022-10-03T16:44:27.136Z,57.35
2022-10-03T16:46:59.667Z,57.82
2022-10-03T16:49:57.476Z,57.28
2022-10-03T16:52:33.324Z,57.60
2022-10-03T16:55:05.627Z,57.35
2022-10-03T16:57:42.935Z,58.47
2022-10-03T17:00:18.737Z,57.82
2022-10-03T17:02:48.869Z,56.70
2022-10-03T17:05:20.128Z,57.93
2022-10-03T17:07:51.373Z,57.08
2022-10-03T17:10:30.094Z,57.81
2022-10-03T17:13:03.619Z,57.92
2022-10-03T17:15:35.183Z,57.07
2022-10-03T17:18:18.698Z,57.46
2022-10-03T17:20:55.263Z,56.95
2022-10-03T17:23:30.597Z,57.23
2022-10-03T17:26:05.084Z,57.27
2022-10-03T17:28:40.148Z,56.45
2022-10-03T17:31:35.908Z,57.20
2022-10-03T17:34:12.265Z,57.84
2022-10-03T17:37:06.911Z,57.45
2022-10-03T17:39:43.972Z,56.92
2022-10-03T17:42:42.654Z,56.62
2022-10-03T17:45:30.678Z,57.26
2022-10-03T17:48:02.012Z,57.13
2022-10-03T17:50:32.848Z,57.35
2022-10-03T17:53:03.502Z,58.21
2022-10-03T17:55:36.055Z,58.29
2022-10-03T17:58:06.693Z,58.79
2022-10-03T18:00:55.500Z,58.03
2022-10-03T18:03:28.129Z,56.39
2022-10-03T18:06:01.726Z,57.23
2022-10-03T18:08:35.708Z,55.57
2022-10-03T18:11:04.663Z,56.99
2022-10-03T18:13:39.672Z,57.95
2022-10-03T18:16:21.785Z,58.31
2022-10-03T18:19:21.600Z,58.01
2022-10-03T18:22:07.487Z,57.91
2022-10-03T18:24:55.225Z,57.57
2022-10-03T18:27:51.408Z,57.10
2022-10-03T18:30:23.046Z,58.19
2022-10-03T18:32:52.707Z,57.68
2022-10-03T18:35:23.464Z,57.75
2022-10-03T18:37:59.329Z,58.18
2022-10-03T18:40:31.910Z,57.37
2022-10-03T18:43:05.182Z,57.70
2022-10-03T18:45:40.006Z,56.79
2022-10-03T18:48:13.919Z,58.31
2022-10-03T18:50:56.770Z,57.63
2022-10-03T18:53:33.126Z,57.51
2022-10-03T18:56:06.967Z,57.88
2022-10-03T18:58:37.719Z,57.84
2022-10-03T19:01:09.241Z,57.03
2022-10-03T19:03:41.403Z,57.21
2022-10-03T19:06:19.477Z,56.03
2022-10-03T19:08:52.498Z,57.56
2022-10-03T19:11:27.635Z,57.40
2022-10-03T19:14:01.503Z,57.79
2022-10-03T19:16:53.440Z,57.58
2022-10-03T19:19:29.771Z,57.76
2022-10-03T19:22:02.297Z,58.44
2022-10-03T19:24:56.643Z,57.85
2022-10-03T19:27:39.935Z,58.63
2022-10-03T19:30:09.334Z,57.71
2022-10-03T19:32:50.382Z,56.64
2022-10-03T19:35:23.472Z,58.84
2022-10-03T19:37:54.686Z,58.68
2022-10-03T19:40:42.317Z,60.02
2022-10-03T19:43:41.184Z,59.15
2022-10-03T19:46:45.889Z,59.64
2022-10-03T19:49:31.098Z,60.06
2022-10-03T19:52:27.730Z,59.55
2022-10-03T19:55:05.749Z,58.51
2022-10-03T19:57:41.290Z,59.68
2022-10-03T20:00:31.996Z,60.40
2022-10-03T20:03:13.192Z,58.57
2022-10-03T20:06:02.196Z,57.91
2022-10-03T20:08:40.619Z,58.94
2022-10-03T20:11:24.626Z,60.20
2022-10-03T20:13:54.394Z,59.54
2022-10-03T20:16:25.194Z,59.61
2022-10-03T20:18:55.030Z,58.33
2022-10-03T20:21:26.181Z,58.13
2022-10-03T20:23:54.440Z,58.18
2022-10-03T20:26:33.300Z,59.25
2022-10-03T20:29:19.460Z,59.47
2022-10-03T20:31:49.373Z,58.84
2022-10-03T20:34:24.422Z,58.63
2022-10-03T20:36:58.159Z,58.31
2022-10-03T20:39:28.677Z,57.44
2022-10-03T20:41:59.639Z,58.66
2022-10-03T20:44:45.594Z,57.47
2022-10-03T20:47:22.502Z,58.16
2022-10-03T20:49:57.197Z,58.15
2022-10-03T20:52:26.646Z,57.81
2022-10-03T20:54:59.495Z,57.36
2022-10-03T20:57:31.847Z,55.67
2022-10-03T21:00:07.786Z,57.63
2022-10-03T21:02:43.202Z,56.66
2022-10-03T21:05:21.088Z,58.66
2022-10-03T21:07:50.995Z,58.45
2022-10-03T21:10:26.205Z,58.01
2022-10-03T21:12:58.517Z,57.12
2022-10-03T21:15:39.018Z,58.85
2022-10-03T21:18:16.886Z,57.61
2022-10-03T21:20:46.997Z,56.66
2022-10-03T21:23:16.931Z,57.67
2022-10-03T21:25:45.446Z,56.97
2022-10-03T21:28:25.363Z,56.89
2022-10-03T21:31:05.839Z,58.14
2022-10-03T21:33:43.074Z,59.66
2022-10-03T21:36:18.509Z,60.36
2022-10-03T21:38:51.293Z,59.61
2022-10-03T21:41:33.147Z,57.12
2022-10-03T21:44:02.303Z,58.51
2022-10-03T21:46:35.577Z,57.79
2022-10-03T21:49:18.831Z,56.88
2022-10-03T21:52:03.115Z,56.96
2022-10-03T21:54:37.259Z,57.60
2022-10-03T21:57:12.007Z,58.89
2022-10-03T21:59:54.597Z,59.21
2022-10-03T22:02:28.113Z,57.86
2022-10-03T22:04:58.529Z,57.47
2022-10-03T22:07:34.575Z,58.17
2022-10-03T22:10:02.345Z,58.34
2022-10-03T22:12:41.577Z,58.25
2022-10-03T22:15:12.457Z,58.51
2022-10-03T22:17:44.291Z,62.37
2022-10-03T22:20:19.944Z,62.56
2022-10-03T22:22:59.519Z,61.14
2022-10-03T22:25:40.940Z,59.64
2022-10-03T22:28:19.385Z,60.36
2022-10-03T22:31:02.439Z,60.13
2022-10-03T22:33:36.186Z,59.33
2022-10-03T22:36:05.371Z,58.90
2022-10-03T22:38:35.566Z,59.60
2022-10-03T22:41:06.624Z,59.42
2022-10-03T22:43:35.806Z,59.54
2022-10-03T22:46:04.227Z,60.19
2022-10-03T22:48:34.243Z,59.04
2022-10-03T22:51:05.953Z,58.70
2022-10-03T22:53:36.720Z,57.33
2022-10-03T22:56:24.726Z,58.20
2022-10-03T22:58:52.932Z,56.83
2022-10-03T23:01:20.769Z,56.87
2022-10-03T23:03:48.736Z,57.59
2022-10-03T23:06:25.589Z,57.67
2022-10-03T23:08:59.217Z,56.44
2022-10-03T23:11:28.239Z,59.55
2022-10-03T23:13:57.702Z,58.05
2022-10-03T23:16:45.758Z,58.62
2022-10-03T23:19:18.130Z,58.24
2022-10-03T23:21:46.962Z,60.38
2022-10-03T23:24:20.437Z,59.74
2022-10-03T23:27:07.230Z,56.50
2022-10-03T23:29:35.002Z,58.58
2022-10-03T23:32:03.904Z,56.87
2022-10-03T23:34:52.776Z,57.59
2022-10-03T23:37:26.065Z,58.77
2022-10-03T23:40:12.255Z,58.92
2022-10-03T23:42:44.253Z,58.96
2022-10-03T23:45:14.897Z,59.01
2022-10-03T23:47:45.578Z,59.50
2022-10-03T23:50:18.714Z,58.07
2022-10-03T23:52:48.064Z,57.19
2022-10-03T23:55:19.238Z,59.26
2022-10-03T23:57:48.669Z,57.63
